sensor_id;sensor_type;location;lat;lon;timestamp;pressure;altitude;pressure_sealevel;temperature;humidity
47524;BME280;33253;42.144;25.884;2023-03-17T00:01:34;100718.84;;;4.54;100.00
47524;BME280;33253;42.144;25.884;2023-03-17T00:03:59;100717.94;;;4.53;100.00
47524;BME280;33253;42.144;25.884;2023-03-17T00:06:29;100723.94;;;4.54;100.00
47524;BME280;33253;42.144;25.884;2023-03-17T00:08:55;100720.50;;;4.53;100.00
47524;BME280;33253;42.144;25.884;2023-03-17T00:11:21;100725.72;;;4.55;100.00
47524;BME280;33253;42.144;25.884;2023-03-17T00:13:47;100723.47;;;4.46;100.00
47524;BME280;33253;42.144;25.884;2023-03-17T00:16:17;100724.25;;;4.45;100.00
47524;BME280;33253;42.144;25.884;2023-03-17T00:18:43;100724.34;;;4.47;100.00
47524;BME280;33253;42.144;25.884;2023-03-17T00:21:10;100725.78;;;4.43;100.00
47524;BME280;33253;42.144;25.884;2023-03-17T00:23:36;100729.81;;;4.40;100.00
47524;BME280;33253;42.144;25.884;2023-03-17T00:26:02;100723.16;;;4.42;100.00
47524;BME280;33253;42.144;25.884;2023-03-17T00:28:27;100730.91;;;4.43;100.00
47524;BME280;33253;42.144;25.884;2023-03-17T00:30:56;100731.69;;;4.42;100.00
47524;BME280;33253;42.144;25.884;2023-03-17T00:33:23;100735.34;;;4.46;100.00
47524;BME280;33253;42.144;25.884;2023-03-17T00:35:50;100726.78;;;4.45;100.00
47524;BME280;33253;42.144;25.884;2023-03-17T00:38:16;100730.03;;;4.43;100.00
47524;BME280;33253;42.144;25.884;2023-03-17T00:40:42;100729.44;;;4.47;100.00
47524;BME280;33253;42.144;25.884;2023-03-17T00:43:09;100736.72;;;4.41;100.00
47524;BME280;33253;42.144;25.884;2023-03-17T00:45:35;100734.25;;;4.42;100.00
47524;BME280;33253;42.144;25.884;2023-03-17T00:48:02;100734.94;;;4.40;100.00
47524;BME280;33253;42.144;25.884;2023-03-17T00:50:27;100731.19;;;4.34;100.00
47524;BME280;33253;42.144;25.884;2023-03-17T00:52:53;100730.00;;;4.29;100.00
47524;BME280;33253;42.144;25.884;2023-03-17T00:55:20;100732.66;;;4.31;100.00
47524;BME280;33253;42.144;25.884;2023-03-17T00:57:46;100737.66;;;4.29;100.00
47524;BME280;33253;42.144;25.884;2023-03-17T01:03:06;100740.59;;;4.22;100.00
47524;BME280;33253;42.144;25.884;2023-03-17T01:05:33;100742.19;;;4.20;100.00
47524;BME280;33253;42.144;25.884;2023-03-17T01:07:58;100747.28;;;4.20;100.00
47524;BME280;33253;42.144;25.884;2023-03-17T01:10:24;100744.84;;;4.21;100.00
47524;BME280;33253;42.144;25.884;2023-03-17T01:12:54;100752.50;;;4.21;100.00
47524;BME280;33253;42.144;25.884;2023-03-17T01:15:21;100749.44;;;4.27;100.00
47524;BME280;33253;42.144;25.884;2023-03-17T01:17:47;100746.81;;;4.26;100.00
47524;BME280;33253;42.144;25.884;2023-03-17T01:20:18;100756.56;;;4.31;100.00
47524;BME280;33253;42.144;25.884;2023-03-17T01:22:43;100754.00;;;4.31;100.00
47524;BME280;33253;42.144;25.884;2023-03-17T01:25:09;100754.19;;;4.34;100.00
47524;BME280;33253;42.144;25.884;2023-03-17T01:27:36;100749.31;;;4.37;100.00
47524;BME280;33253;42.144;25.884;2023-03-17T01:30:02;100761.69;;;4.45;100.00
47524;BME280;33253;42.144;25.884;2023-03-17T01:32:28;100763.78;;;4.50;100.00
47524;BME280;33253;42.144;25.884;2023-03-17T01:34:53;100760.53;;;4.53;100.00
47524;BME280;33253;42.144;25.884;2023-03-17T01:37:18;100761.81;;;4.60;100.00
47524;BME280;33253;42.144;25.884;2023-03-17T01:39:45;100766.03;;;4.59;100.00
47524;BME280;33253;42.144;25.884;2023-03-17T01:42:11;100759.78;;;4.67;100.00
47524;BME280;33253;42.144;25.884;2023-03-17T01:44:55;100759.88;;;4.69;100.00
47524;BME280;33253;42.144;25.884;2023-03-17T01:47:20;100754.06;;;4.72;100.00
47524;BME280;33253;42.144;25.884;2023-03-17T01:49:47;100766.53;;;4.67;100.00
47524;BME280;33253;42.144;25.884;2023-03-17T01:52:16;100764.38;;;4.60;100.00
47524;BME280;33253;42.144;25.884;2023-03-17T01:54:45;100771.16;;;4.59;100.00
47524;BME280;33253;42.144;25.884;2023-03-17T01:57:18;100767.13;;;4.63;100.00
47524;BME280;33253;42.144;25.884;2023-03-17T01:59:51;100774.91;;;4.64;100.00
47524;BME280;33253;42.144;25.884;2023-03-17T02:02:19;100777.75;;;4.56;100.00
47524;BME280;33253;42.144;25.884;2023-03-17T02:04:46;100779.09;;;4.50;100.00
47524;BME280;33253;42.144;25.884;2023-03-17T02:07:12;100782.72;;;4.41;100.00
47524;BME280;33253;42.144;25.884;2023-03-17T02:09:42;100781.63;;;4.37;100.00
47524;BME280;33253;42.144;25.884;2023-03-17T02:12:08;100781.22;;;4.31;100.00
47524;BME280;33253;42.144;25.884;2023-03-17T02:14:34;100786.13;;;4.28;100.00
47524;BME280;33253;42.144;25.884;2023-03-17T02:17:00;100783.59;;;4.28;100.00
47524;BME280;33253;42.144;25.884;2023-03-17T02:19:26;100792.44;;;4.33;100.00
47524;BME280;33253;42.144;25.884;2023-03-17T02:21:53;100790.75;;;4.33;100.00
47524;BME280;33253;42.144;25.884;2023-03-17T02:24:35;100787.53;;;4.36;100.00
47524;BME280;33253;42.144;25.884;2023-03-17T02:27:03;100785.38;;;4.42;100.00
47524;BME280;33253;42.144;25.884;2023-03-17T02:29:31;100785.97;;;4.38;100.00
47524;BME280;33253;42.144;25.884;2023-03-17T02:31:57;100784.25;;;4.25;100.00
47524;BME280;33253;42.144;25.884;2023-03-17T02:34:23;100788.84;;;4.17;100.00
47524;BME280;33253;42.144;25.884;2023-03-17T02:36:48;100787.28;;;4.19;100.00
47524;BME280;33253;42.144;25.884;2023-03-17T02:39:13;100786.69;;;4.24;100.00
47524;BME280;33253;42.144;25.884;2023-03-17T02:41:39;100796.66;;;4.32;100.00
47524;BME280;33253;42.144;25.884;2023-03-17T02:44:04;100799.84;;;4.42;100.00
47524;BME280;33253;42.144;25.884;2023-03-17T02:46:31;100793.78;;;4.53;100.00
47524;BME280;33253;42.144;25.884;2023-03-17T02:48:56;100806.97;;;4.59;100.00
47524;BME280;33253;42.144;25.884;2023-03-17T02:51:22;100810.25;;;4.45;100.00
47524;BME280;33253;42.144;25.884;2023-03-17T02:53:47;100819.50;;;4.17;100.00
47524;BME280;33253;42.144;25.884;2023-03-17T02:56:13;100820.75;;;4.11;100.00
47524;BME280;33253;42.144;25.884;2023-03-17T02:58:38;100818.56;;;4.03;100.00
47524;BME280;33253;42.144;25.884;2023-03-17T03:01:03;100817.88;;;4.06;100.00
47524;BME280;33253;42.144;25.884;2023-03-17T03:03:29;100818.09;;;4.09;100.00
47524;BME280;33253;42.144;25.884;2023-03-17T03:05:54;100819.22;;;4.13;100.00
47524;BME280;33253;42.144;25.884;2023-03-17T03:08:21;100824.59;;;4.17;100.00
47524;BME280;33253;42.144;25.884;2023-03-17T03:10:46;100827.28;;;4.19;100.00
47524;BME280;33253;42.144;25.884;2023-03-17T03:13:12;100829.63;;;4.16;100.00
47524;BME280;33253;42.144;25.884;2023-03-17T03:15:39;100834.06;;;4.18;100.00
47524;BME280;33253;42.144;25.884;2023-03-17T03:18:04;100837.44;;;4.31;100.00
47524;BME280;33253;42.144;25.884;2023-03-17T03:20:30;100839.53;;;4.36;100.00
47524;BME280;33253;42.144;25.884;2023-03-17T03:22:55;100826.66;;;4.35;100.00
47524;BME280;33253;42.144;25.884;2023-03-17T03:25:21;100831.72;;;4.21;100.00
47524;BME280;33253;42.144;25.884;2023-03-17T03:27:46;100843.03;;;4.25;100.00
47524;BME280;33253;42.144;25.884;2023-03-17T03:30:11;100835.41;;;4.38;100.00
47524;BME280;33253;42.144;25.884;2023-03-17T03:32:37;100851.75;;;4.41;100.00
47524;BME280;33253;42.144;25.884;2023-03-17T03:35:02;100850.97;;;4.42;100.00
47524;BME280;33253;42.144;25.884;2023-03-17T03:37:28;100845.16;;;4.44;100.00
47524;BME280;33253;42.144;25.884;2023-03-17T03:39:53;100854.09;;;4.37;100.00
47524;BME280;33253;42.144;25.884;2023-03-17T03:42:19;100816.66;;;4.13;100.00
47524;BME280;33253;42.144;25.884;2023-03-17T03:44:44;100845.59;;;4.25;100.00
47524;BME280;33253;42.144;25.884;2023-03-17T03:47:09;100853.72;;;4.19;100.00
47524;BME280;33253;42.144;25.884;2023-03-17T03:49:35;100852.97;;;4.09;100.00
47524;BME280;33253;42.144;25.884;2023-03-17T03:52:00;100855.09;;;4.02;100.00
47524;BME280;33253;42.144;25.884;2023-03-17T03:54:26;100861.03;;;4.01;100.00
47524;BME280;33253;42.144;25.884;2023-03-17T03:56:51;100861.13;;;4.03;100.00
47524;BME280;33253;42.144;25.884;2023-03-17T03:59:16;100862.00;;;4.03;100.00
47524;BME280;33253;42.144;25.884;2023-03-17T04:01:42;100865.56;;;4.05;100.00
47524;BME280;33253;42.144;25.884;2023-03-17T04:04:07;100866.41;;;4.06;100.00
47524;BME280;33253;42.144;25.884;2023-03-17T04:06:32;100875.34;;;3.99;100.00
47524;BME280;33253;42.144;25.884;2023-03-17T04:08:58;100873.88;;;4.03;100.00
47524;BME280;33253;42.144;25.884;2023-03-17T04:11:23;100870.44;;;4.02;100.00
47524;BME280;33253;42.144;25.884;2023-03-17T04:13:48;100876.66;;;4.06;100.00
47524;BME280;33253;42.144;25.884;2023-03-17T04:16:14;100876.00;;;3.97;100.00
47524;BME280;33253;42.144;25.884;2023-03-17T04:18:40;100880.66;;;4.02;100.00
47524;BME280;33253;42.144;25.884;2023-03-17T04:21:05;100893.47;;;3.91;100.00
47524;BME280;33253;42.144;25.884;2023-03-17T04:23:32;100888.47;;;3.92;100.00
47524;BME280;33253;42.144;25.884;2023-03-17T04:25:57;100888.78;;;3.85;100.00
47524;BME280;33253;42.144;25.884;2023-03-17T04:28:23;100894.81;;;3.73;100.00
47524;BME280;33253;42.144;25.884;2023-03-17T04:30:48;100884.06;;;3.66;100.00
47524;BME280;33253;42.144;25.884;2023-03-17T04:33:13;100895.38;;;3.58;100.00
47524;BME280;33253;42.144;25.884;2023-03-17T04:35:39;100897.81;;;3.56;100.00
47524;BME280;33253;42.144;25.884;2023-03-17T04:38:04;100908.03;;;3.56;100.00
47524;BME280;33253;42.144;25.884;2023-03-17T04:40:30;100903.72;;;3.55;100.00
47524;BME280;33253;42.144;25.884;2023-03-17T04:42:56;100906.59;;;3.60;100.00
47524;BME280;33253;42.144;25.884;2023-03-17T04:45:21;100909.63;;;3.54;100.00
47524;BME280;33253;42.144;25.884;2023-03-17T04:47:46;100904.50;;;3.54;100.00
47524;BME280;33253;42.144;25.884;2023-03-17T04:50:12;100913.72;;;3.52;100.00
47524;BME280;33253;42.144;25.884;2023-03-17T04:52:37;100920.47;;;3.51;100.00
47524;BME280;33253;42.144;25.884;2023-03-17T04:55:03;100915.81;;;3.46;100.00
47524;BME280;33253;42.144;25.884;2023-03-17T04:57:28;100915.72;;;3.44;100.00
47524;BME280;33253;42.144;25.884;2023-03-17T04:59:53;100926.03;;;3.46;100.00
47524;BME280;33253;42.144;25.884;2023-03-17T05:02:19;100926.25;;;3.49;100.00
47524;BME280;33253;42.144;25.884;2023-03-17T05:04:44;100928.78;;;3.49;100.00
47524;BME280;33253;42.144;25.884;2023-03-17T05:07:13;100930.91;;;3.54;100.00
47524;BME280;33253;42.144;25.884;2023-03-17T05:09:38;100933.13;;;3.62;100.00
47524;BME280;33253;42.144;25.884;2023-03-17T05:12:04;100936.66;;;3.64;100.00
47524;BME280;33253;42.144;25.884;2023-03-17T05:14:29;100936.47;;;3.61;100.00
47524;BME280;33253;42.144;25.884;2023-03-17T05:16:55;100947.34;;;3.58;100.00
47524;BME280;33253;42.144;25.884;2023-03-17T05:19:20;100947.44;;;3.60;100.00
47524;BME280;33253;42.144;25.884;2023-03-17T05:21:45;100908.72;;;3.42;100.00
47524;BME280;33253;42.144;25.884;2023-03-17T05:24:11;100948.44;;;3.73;100.00
47524;BME280;33253;42.144;25.884;2023-03-17T05:26:37;100958.56;;;3.84;100.00
47524;BME280;33253;42.144;25.884;2023-03-17T05:29:02;100954.78;;;3.91;100.00
47524;BME280;33253;42.144;25.884;2023-03-17T05:31:28;100954.44;;;3.98;100.00
47524;BME280;33253;42.144;25.884;2023-03-17T05:33:55;100959.97;;;4.04;100.00
47524;BME280;33253;42.144;25.884;2023-03-17T05:36:20;100956.84;;;4.08;100.00
47524;BME280;33253;42.144;25.884;2023-03-17T05:38:45;100955.94;;;4.19;100.00
47524;BME280;33253;42.144;25.884;2023-03-17T05:41:11;100965.81;;;4.27;100.00
47524;BME280;33253;42.144;25.884;2023-03-17T05:43:36;100968.34;;;4.38;100.00
47524;BME280;33253;42.144;25.884;2023-03-17T05:46:03;100970.53;;;4.46;100.00
47524;BME280;33253;42.144;25.884;2023-03-17T05:48:28;100967.53;;;4.51;100.00
47524;BME280;33253;42.144;25.884;2023-03-17T05:50:53;100978.09;;;4.56;100.00
47524;BME280;33253;42.144;25.884;2023-03-17T05:53:19;100983.56;;;4.49;100.00
47524;BME280;33253;42.144;25.884;2023-03-17T05:55:44;100979.41;;;4.51;100.00
47524;BME280;33253;42.144;25.884;2023-03-17T05:58:10;100988.53;;;4.59;100.00
47524;BME280;33253;42.144;25.884;2023-03-17T06:00:35;100986.97;;;4.61;100.00
47524;BME280;33253;42.144;25.884;2023-03-17T06:03:01;100992.09;;;4.61;100.00
47524;BME280;33253;42.144;25.884;2023-03-17T06:05:28;100994.94;;;4.66;100.00
47524;BME280;33253;42.144;25.884;2023-03-17T06:07:53;100990.38;;;4.74;100.00
47524;BME280;33253;42.144;25.884;2023-03-17T06:10:18;100995.44;;;4.85;100.00
47524;BME280;33253;42.144;25.884;2023-03-17T06:12:43;100996.94;;;4.95;100.00
47524;BME280;33253;42.144;25.884;2023-03-17T06:15:09;100999.16;;;5.02;100.00
47524;BME280;33253;42.144;25.884;2023-03-17T06:17:35;100998.09;;;5.12;100.00
47524;BME280;33253;42.144;25.884;2023-03-17T06:20:00;100993.25;;;5.17;100.00
47524;BME280;33253;42.144;25.884;2023-03-17T06:22:25;100999.59;;;5.22;100.00
47524;BME280;33253;42.144;25.884;2023-03-17T06:24:51;101011.09;;;5.15;100.00
47524;BME280;33253;42.144;25.884;2023-03-17T06:27:17;101012.97;;;5.18;100.00
47524;BME280;33253;42.144;25.884;2023-03-17T06:29:42;101020.44;;;5.15;100.00
47524;BME280;33253;42.144;25.884;2023-03-17T06:32:08;101017.88;;;5.15;100.00
47524;BME280;33253;42.144;25.884;2023-03-17T06:34:33;101019.25;;;5.10;100.00
47524;BME280;33253;42.144;25.884;2023-03-17T06:36:58;101024.66;;;5.14;100.00
47524;BME280;33253;42.144;25.884;2023-03-17T06:39:24;101022.31;;;5.17;100.00
47524;BME280;33253;42.144;25.884;2023-03-17T06:41:49;101027.22;;;5.14;100.00
47524;BME280;33253;42.144;25.884;2023-03-17T06:44:14;101031.66;;;5.17;100.00
47524;BME280;33253;42.144;25.884;2023-03-17T06:46:40;101025.34;;;5.12;100.00
47524;BME280;33253;42.144;25.884;2023-03-17T06:49:05;101033.75;;;5.23;100.00
47524;BME280;33253;42.144;25.884;2023-03-17T06:51:31;101036.41;;;5.24;100.00
47524;BME280;33253;42.144;25.884;2023-03-17T06:53:58;101034.34;;;5.18;100.00
47524;BME280;33253;42.144;25.884;2023-03-17T06:56:23;101034.16;;;5.29;100.00
47524;BME280;33253;42.144;25.884;2023-03-17T06:58:49;101041.25;;;5.33;100.00
47524;BME280;33253;42.144;25.884;2023-03-17T07:01:16;101041.75;;;5.27;100.00
47524;BME280;33253;42.144;25.884;2023-03-17T07:03:41;101042.94;;;5.32;100.00
47524;BME280;33253;42.144;25.884;2023-03-17T07:06:07;101050.63;;;5.32;100.00
47524;BME280;33253;42.144;25.884;2023-03-17T07:08:33;101049.94;;;5.35;100.00
47524;BME280;33253;42.144;25.884;2023-03-17T07:10:58;101045.94;;;5.39;100.00
47524;BME280;33253;42.144;25.884;2023-03-17T07:13:24;101049.34;;;5.39;100.00
47524;BME280;33253;42.144;25.884;2023-03-17T07:15:49;101050.56;;;5.44;100.00
47524;BME280;33253;42.144;25.884;2023-03-17T07:18:15;101050.88;;;5.49;100.00
47524;BME280;33253;42.144;25.884;2023-03-17T07:20:41;101043.28;;;5.50;100.00
47524;BME280;33253;42.144;25.884;2023-03-17T07:23:14;101047.72;;;5.53;100.00
47524;BME280;33253;42.144;25.884;2023-03-17T07:25:40;101050.97;;;5.50;100.00
47524;BME280;33253;42.144;25.884;2023-03-17T07:28:07;101044.59;;;5.57;100.00
47524;BME280;33253;42.144;25.884;2023-03-17T07:30:33;101037.03;;;5.72;100.00
47524;BME280;33253;42.144;25.884;2023-03-17T07:32:58;101041.75;;;5.79;100.00
47524;BME280;33253;42.144;25.884;2023-03-17T07:35:24;101042.66;;;5.80;100.00
47524;BME280;33253;42.144;25.884;2023-03-17T07:37:49;101039.81;;;5.89;100.00
47524;BME280;33253;42.144;25.884;2023-03-17T07:40:14;101039.19;;;5.93;100.00
47524;BME280;33253;42.144;25.884;2023-03-17T07:42:42;101047.00;;;5.94;100.00
47524;BME280;33253;42.144;25.884;2023-03-17T07:45:09;101042.50;;;6.04;100.00
47524;BME280;33253;42.144;25.884;2023-03-17T07:47:35;101048.72;;;6.07;100.00
47524;BME280;33253;42.144;25.884;2023-03-17T07:50:00;101046.06;;;6.06;100.00
47524;BME280;33253;42.144;25.884;2023-03-17T07:52:25;101043.91;;;6.12;100.00
47524;BME280;33253;42.144;25.884;2023-03-17T07:54:51;101045.94;;;6.31;100.00
47524;BME280;33253;42.144;25.884;2023-03-17T07:57:17;101044.84;;;6.41;100.00
47524;BME280;33253;42.144;25.884;2023-03-17T07:59:42;101052.63;;;6.42;100.00
47524;BME280;33253;42.144;25.884;2023-03-17T08:02:17;101046.63;;;6.42;100.00
47524;BME280;33253;42.144;25.884;2023-03-17T08:04:43;101042.00;;;6.36;98.77
47524;BME280;33253;42.144;25.884;2023-03-17T08:07:09;101048.38;;;6.43;100.00
47524;BME280;33253;42.144;25.884;2023-03-17T08:09:35;101055.59;;;6.48;100.00
47524;BME280;33253;42.144;25.884;2023-03-17T08:12:01;101050.44;;;6.48;98.68
47524;BME280;33253;42.144;25.884;2023-03-17T08:14:27;101054.41;;;6.57;99.39
47524;BME280;33253;42.144;25.884;2023-03-17T08:16:53;101061.19;;;6.56;97.50
47524;BME280;33253;42.144;25.884;2023-03-17T08:19:18;101065.94;;;6.50;97.15
47524;BME280;33253;42.144;25.884;2023-03-17T08:21:43;101057.66;;;6.54;96.33
47524;BME280;33253;42.144;25.884;2023-03-17T08:24:09;101068.41;;;6.62;96.69
47524;BME280;33253;42.144;25.884;2023-03-17T08:26:34;101054.97;;;6.66;97.23
47524;BME280;33253;42.144;25.884;2023-03-17T08:29:00;101061.34;;;6.73;99.47
47524;BME280;33253;42.144;25.884;2023-03-17T08:31:25;101059.81;;;6.90;97.10
47524;BME280;33253;42.144;25.884;2023-03-17T08:33:52;101056.09;;;7.13;97.60
47524;BME280;33253;42.144;25.884;2023-03-17T08:36:17;101046.31;;;7.36;96.57
47524;BME280;33253;42.144;25.884;2023-03-17T08:38:44;101061.81;;;7.52;97.34
47524;BME280;33253;42.144;25.884;2023-03-17T08:41:11;101045.25;;;7.62;94.70
47524;BME280;33253;42.144;25.884;2023-03-17T08:43:37;101054.75;;;7.63;92.40
47524;BME280;33253;42.144;25.884;2023-03-17T08:46:05;101048.09;;;7.82;95.29
47524;BME280;33253;42.144;25.884;2023-03-17T08:48:31;101040.53;;;8.00;95.92
47524;BME280;33253;42.144;25.884;2023-03-17T08:50:56;101049.03;;;8.14;91.45
47524;BME280;33253;42.144;25.884;2023-03-17T08:53:22;101038.88;;;8.32;91.00
47524;BME280;33253;42.144;25.884;2023-03-17T08:55:47;101038.28;;;8.21;91.21
47524;BME280;33253;42.144;25.884;2023-03-17T08:58:12;101040.84;;;8.21;90.90
47524;BME280;33253;42.144;25.884;2023-03-17T09:00:38;101036.59;;;8.36;92.37
47524;BME280;33253;42.144;25.884;2023-03-17T09:03:04;101047.22;;;8.42;90.58
47524;BME280;33253;42.144;25.884;2023-03-17T09:05:30;101036.19;;;8.60;90.84
47524;BME280;33253;42.144;25.884;2023-03-17T09:07:55;101032.09;;;8.80;89.78
47524;BME280;33253;42.144;25.884;2023-03-17T09:10:20;101031.75;;;8.90;91.07
47524;BME280;33253;42.144;25.884;2023-03-17T09:12:48;101034.41;;;8.92;91.08
47524;BME280;33253;42.144;25.884;2023-03-17T09:15:13;101035.06;;;8.88;90.83
47524;BME280;33253;42.144;25.884;2023-03-17T09:17:38;101035.97;;;8.88;90.82
47524;BME280;33253;42.144;25.884;2023-03-17T09:20:05;101035.31;;;8.76;88.34
47524;BME280;33253;42.144;25.884;2023-03-17T09:22:30;101035.53;;;8.81;89.12
47524;BME280;33253;42.144;25.884;2023-03-17T09:24:56;101041.50;;;8.80;87.86
47524;BME280;33253;42.144;25.884;2023-03-17T09:27:22;101035.63;;;8.99;91.40
47524;BME280;33253;42.144;25.884;2023-03-17T09:29:47;101034.91;;;9.01;87.39
47524;BME280;33253;42.144;25.884;2023-03-17T09:32:12;101039.97;;;9.16;89.54
47524;BME280;33253;42.144;25.884;2023-03-17T09:34:38;101043.50;;;9.35;88.41
47524;BME280;33253;42.144;25.884;2023-03-17T09:37:03;101052.00;;;9.50;83.48
47524;BME280;33253;42.144;25.884;2023-03-17T09:39:28;101047.31;;;9.60;85.56
47524;BME280;33253;42.144;25.884;2023-03-17T09:49:54;101050.88;;;9.80;81.60
47524;BME280;33253;42.144;25.884;2023-03-17T09:52:29;101052.44;;;9.94;81.73
47524;BME280;33253;42.144;25.884;2023-03-17T09:54:55;101043.97;;;9.97;83.75
47524;BME280;33253;42.144;25.884;2023-03-17T09:57:23;101045.16;;;10.03;84.47
47524;BME280;33253;42.144;25.884;2023-03-17T09:59:54;101052.94;;;9.69;83.56
47524;BME280;33253;42.144;25.884;2023-03-17T10:02:32;101054.31;;;9.62;82.35
47524;BME280;33253;42.144;25.884;2023-03-17T10:05:20;101051.66;;;9.61;83.00
47524;BME280;33253;42.144;25.884;2023-03-17T10:10:36;101056.16;;;9.65;82.23
47524;BME280;33253;42.144;25.884;2023-03-17T10:13:14;101054.13;;;9.41;82.63
47524;BME280;33253;42.144;25.884;2023-03-17T10:18:16;101043.00;;;9.77;83.82
47524;BME280;33253;42.144;25.884;2023-03-17T10:20:45;101038.66;;;9.94;84.88
47524;BME280;33253;42.144;25.884;2023-03-17T10:23:13;101043.81;;;9.94;83.45
47524;BME280;33253;42.144;25.884;2023-03-17T10:25:40;101036.16;;;9.95;83.22
47524;BME280;33253;42.144;25.884;2023-03-17T10:28:15;101031.31;;;10.19;83.31
47524;BME280;33253;42.144;25.884;2023-03-17T10:30:43;101030.78;;;10.45;79.99
47524;BME280;33253;42.144;25.884;2023-03-17T10:33:09;101035.94;;;10.45;80.40
47524;BME280;33253;42.144;25.884;2023-03-17T10:35:35;101032.56;;;10.46;80.05
47524;BME280;33253;42.144;25.884;2023-03-17T10:40:43;101026.28;;;10.98;81.32
47524;BME280;33253;42.144;25.884;2023-03-17T10:43:10;101025.44;;;11.19;82.14
47524;BME280;33253;42.144;25.884;2023-03-17T10:45:45;101020.53;;;11.44;77.93
47524;BME280;33253;42.144;25.884;2023-03-17T10:48:15;101014.66;;;11.70;80.43
47524;BME280;33253;42.144;25.884;2023-03-17T10:50:41;101012.00;;;11.68;78.15
47524;BME280;33253;42.144;25.884;2023-03-17T10:53:16;100996.19;;;11.60;78.71
47524;BME280;33253;42.144;25.884;2023-03-17T10:55:52;101000.44;;;11.39;81.04
47524;BME280;33253;42.144;25.884;2023-03-17T11:01:04;101009.59;;;10.34;81.51
47524;BME280;33253;42.144;25.884;2023-03-17T11:03:32;101015.81;;;10.01;82.22
47524;BME280;33253;42.144;25.884;2023-03-17T11:06:04;101009.69;;;9.81;81.60
47524;BME280;33253;42.144;25.884;2023-03-17T11:08:32;101003.78;;;10.20;82.94
47524;BME280;33253;42.144;25.884;2023-03-17T11:10:59;101002.69;;;10.51;81.94
47524;BME280;33253;42.144;25.884;2023-03-17T11:13:28;100995.84;;;10.91;81.94
47524;BME280;33253;42.144;25.884;2023-03-17T11:18:43;100999.28;;;10.34;81.97
47524;BME280;33253;42.144;25.884;2023-03-17T11:21:09;100994.00;;;10.13;80.49
47524;BME280;33253;42.144;25.884;2023-03-17T11:28:49;100997.97;;;9.88;79.73
47524;BME280;33253;42.144;25.884;2023-03-17T11:31:20;100997.91;;;9.86;81.43
47524;BME280;33253;42.144;25.884;2023-03-17T11:39:09;100974.34;;;11.32;80.70
47524;BME280;33253;42.144;25.884;2023-03-17T11:41:39;100982.50;;;11.42;78.65
47524;BME280;33253;42.144;25.884;2023-03-17T11:49:19;100981.88;;;10.30;78.73
47524;BME280;33253;42.144;25.884;2023-03-17T11:54:35;100980.03;;;9.90;80.46
47524;BME280;33253;42.144;25.884;2023-03-17T11:57:10;100980.22;;;9.76;79.39
47524;BME280;33253;42.144;25.884;2023-03-17T11:59:48;100976.34;;;9.84;78.47
47524;BME280;33253;42.144;25.884;2023-03-17T12:09:58;100975.66;;;10.82;74.28
47524;BME280;33253;42.144;25.884;2023-03-17T12:12:36;100973.59;;;10.55;73.29
47524;BME280;33253;42.144;25.884;2023-03-17T12:15:04;100977.16;;;10.39;74.74
47524;BME280;33253;42.144;25.884;2023-03-17T12:17:38;100974.88;;;10.27;74.50
47524;BME280;33253;42.144;25.884;2023-03-17T12:20:11;100977.16;;;10.39;73.74
47524;BME280;33253;42.144;25.884;2023-03-17T12:22:54;100971.94;;;10.38;73.21
47524;BME280;33253;42.144;25.884;2023-03-17T12:25:23;100968.41;;;10.35;74.89
47524;BME280;33253;42.144;25.884;2023-03-17T12:28:02;100965.00;;;10.36;73.94
47524;BME280;33253;42.144;25.884;2023-03-17T12:30:31;100961.84;;;10.42;76.31
47524;BME280;33253;42.144;25.884;2023-03-17T12:35:29;100970.13;;;10.17;73.70
47524;BME280;33253;42.144;25.884;2023-03-17T12:37:57;100962.16;;;10.12;75.46
47524;BME280;33253;42.144;25.884;2023-03-17T12:40:24;100968.06;;;10.10;73.48
47524;BME280;33253;42.144;25.884;2023-03-17T12:45:37;100966.34;;;10.10;74.27
47524;BME280;33253;42.144;25.884;2023-03-17T12:53:24;100966.41;;;10.30;74.44
47524;BME280;33253;42.144;25.884;2023-03-17T12:55:53;100966.94;;;10.23;70.72
47524;BME280;33253;42.144;25.884;2023-03-17T12:58:21;100960.38;;;10.29;71.72
47524;BME280;33253;42.144;25.884;2023-03-17T13:03:35;100962.09;;;10.30;71.62
47524;BME280;33253;42.144;25.884;2023-03-17T13:06:04;100963.06;;;10.32;71.03
47524;BME280;33253;42.144;25.884;2023-03-17T13:08:35;100957.25;;;10.36;72.36
47524;BME280;33253;42.144;25.884;2023-03-17T13:13:49;100962.44;;;10.36;73.43
47524;BME280;33253;42.144;25.884;2023-03-17T13:18:50;100966.78;;;10.19;69.37
47524;BME280;33253;42.144;25.884;2023-03-17T13:21:17;100960.22;;;10.26;73.17
47524;BME280;33253;42.144;25.884;2023-03-17T13:29:22;100959.19;;;10.23;69.80
47524;BME280;33253;42.144;25.884;2023-03-17T13:31:48;100948.63;;;10.18;69.20
47524;BME280;33253;42.144;25.884;2023-03-17T13:34:14;100964.28;;;10.21;73.79
47524;BME280;33253;42.144;25.884;2023-03-17T13:41:41;100967.53;;;9.99;70.13
47524;BME280;33253;42.144;25.884;2023-03-17T13:46:43;100965.13;;;9.84;71.87
47524;BME280;33253;42.144;25.884;2023-03-17T13:51:58;100966.84;;;9.83;71.42
47524;BME280;33253;42.144;25.884;2023-03-17T13:56:57;100962.59;;;9.85;70.74
47524;BME280;33253;42.144;25.884;2023-03-17T14:02:16;100971.81;;;9.80;73.32
47524;BME280;33253;42.144;25.884;2023-03-17T14:04:58;100965.88;;;9.63;74.21
47524;BME280;33253;42.144;25.884;2023-03-17T14:07:25;100971.53;;;9.56;72.47
47524;BME280;33253;42.144;25.884;2023-03-17T14:09:55;100969.69;;;9.53;72.29
47524;BME280;33253;42.144;25.884;2023-03-17T14:12:25;100972.09;;;9.50;74.14